sensor_id;sensor_type;location;lat;lon;timestamp;temperature;humidity
24470;DHT22;12635;50.852;5.676;2023-08-17T00:01:53;19.20;99.90
24470;DHT22;12635;50.852;5.676;2023-08-17T00:04:20;19.30;99.90
24470;DHT22;12635;50.852;5.676;2023-08-17T00:06:47;19.30;99.90
24470;DHT22;12635;50.852;5.676;2023-08-17T00:09:14;19.20;99.90
24470;DHT22;12635;50.852;5.676;2023-08-17T00:11:41;19.20;99.90
24470;DHT22;12635;50.852;5.676;2023-08-17T00:14:07;19.20;99.90
24470;DHT22;12635;50.852;5.676;2023-08-17T00:16:35;19.20;99.90
24470;DHT22;12635;50.852;5.676;2023-08-17T00:19:04;19.20;99.90
24470;DHT22;12635;50.852;5.676;2023-08-17T00:21:31;19.30;99.90
24470;DHT22;12635;50.852;5.676;2023-08-17T00:23:58;19.30;99.90
24470;DHT22;12635;50.852;5.676;2023-08-17T00:26:25;19.40;99.90
24470;DHT22;12635;50.852;5.676;2023-08-17T00:28:53;19.30;99.90
24470;DHT22;12635;50.852;5.676;2023-08-17T00:31:20;19.30;99.90
24470;DHT22;12635;50.852;5.676;2023-08-17T00:33:47;19.30;99.90
24470;DHT22;12635;50.852;5.676;2023-08-17T00:36:15;19.20;99.90
24470;DHT22;12635;50.852;5.676;2023-08-17T00:38:42;19.20;99.90
24470;DHT22;12635;50.852;5.676;2023-08-17T00:41:09;19.20;99.90
24470;DHT22;12635;50.852;5.676;2023-08-17T00:43:36;19.20;99.90
24470;DHT22;12635;50.852;5.676;2023-08-17T00:46:03;19.10;99.90
24470;DHT22;12635;50.852;5.676;2023-08-17T00:48:30;19.20;99.90
24470;DHT22;12635;50.852;5.676;2023-08-17T00:50:57;19.20;99.90
24470;DHT22;12635;50.852;5.676;2023-08-17T00:53:27;19.10;99.90
24470;DHT22;12635;50.852;5.676;2023-08-17T00:55:54;19.10;99.90
24470;DHT22;12635;50.852;5.676;2023-08-17T00:58:22;19.10;99.90
24470;DHT22;12635;50.852;5.676;2023-08-17T01:00:50;19.00;99.90
24470;DHT22;12635;50.852;5.676;2023-08-17T01:03:17;19.00;99.90
24470;DHT22;12635;50.852;5.676;2023-08-17T01:05:45;19.00;99.90
24470;DHT22;12635;50.852;5.676;2023-08-17T01:08:12;19.00;99.90
24470;DHT22;12635;50.852;5.676;2023-08-17T01:10:44;19.00;99.90
24470;DHT22;12635;50.852;5.676;2023-08-17T01:13:15;19.00;99.90
24470;DHT22;12635;50.852;5.676;2023-08-17T01:15:45;18.90;99.90
24470;DHT22;12635;50.852;5.676;2023-08-17T01:18:17;18.90;99.90
24470;DHT22;12635;50.852;5.676;2023-08-17T01:20:48;18.90;99.90
24470;DHT22;12635;50.852;5.676;2023-08-17T01:23:16;18.90;99.90
24470;DHT22;12635;50.852;5.676;2023-08-17T01:25:43;18.80;99.90
24470;DHT22;12635;50.852;5.676;2023-08-17T01:28:10;18.80;99.90
24470;DHT22;12635;50.852;5.676;2023-08-17T01:30:38;18.80;99.90
24470;DHT22;12635;50.852;5.676;2023-08-17T01:33:06;18.80;99.90
24470;DHT22;12635;50.852;5.676;2023-08-17T01:35:36;18.70;99.90
24470;DHT22;12635;50.852;5.676;2023-08-17T01:38:06;18.70;99.90
24470;DHT22;12635;50.852;5.676;2023-08-17T01:40:35;18.70;99.90
24470;DHT22;12635;50.852;5.676;2023-08-17T01:43:02;18.70;99.90
24470;DHT22;12635;50.852;5.676;2023-08-17T01:45:30;18.70;99.90
24470;DHT22;12635;50.852;5.676;2023-08-17T01:47:57;18.70;99.90
24470;DHT22;12635;50.852;5.676;2023-08-17T01:50:23;18.60;99.90
24470;DHT22;12635;50.852;5.676;2023-08-17T01:52:50;18.60;99.90
24470;DHT22;12635;50.852;5.676;2023-08-17T01:55:18;18.60;99.90
24470;DHT22;12635;50.852;5.676;2023-08-17T01:57:46;18.60;99.90
24470;DHT22;12635;50.852;5.676;2023-08-17T02:00:14;18.50;99.90
24470;DHT22;12635;50.852;5.676;2023-08-17T02:02:41;18.50;99.90
24470;DHT22;12635;50.852;5.676;2023-08-17T02:05:08;18.50;99.90
24470;DHT22;12635;50.852;5.676;2023-08-17T02:07:35;18.50;99.90
24470;DHT22;12635;50.852;5.676;2023-08-17T02:10:01;18.50;99.90
24470;DHT22;12635;50.852;5.676;2023-08-17T02:12:28;18.50;99.90
24470;DHT22;12635;50.852;5.676;2023-08-17T02:14:57;18.50;99.90
24470;DHT22;12635;50.852;5.676;2023-08-17T02:17:24;18.40;99.90
24470;DHT22;12635;50.852;5.676;2023-08-17T02:19:51;18.40;99.90
24470;DHT22;12635;50.852;5.676;2023-08-17T02:22:17;18.40;99.90
24470;DHT22;12635;50.852;5.676;2023-08-17T02:24:44;18.40;99.90
24470;DHT22;12635;50.852;5.676;2023-08-17T02:27:12;18.40;99.90
24470;DHT22;12635;50.852;5.676;2023-08-17T02:29:39;18.40;99.90
24470;DHT22;12635;50.852;5.676;2023-08-17T02:32:07;18.30;99.90
24470;DHT22;12635;50.852;5.676;2023-08-17T02:34:34;18.30;99.90
24470;DHT22;12635;50.852;5.676;2023-08-17T02:37:01;18.40;99.90
24470;DHT22;12635;50.852;5.676;2023-08-17T02:39:28;18.30;99.90
24470;DHT22;12635;50.852;5.676;2023-08-17T02:41:55;18.30;99.90
24470;DHT22;12635;50.852;5.676;2023-08-17T02:44:22;18.30;99.90
24470;DHT22;12635;50.852;5.676;2023-08-17T02:46:49;18.30;99.90
24470;DHT22;12635;50.852;5.676;2023-08-17T02:49:17;18.20;99.90
24470;DHT22;12635;50.852;5.676;2023-08-17T02:51:44;18.20;99.90
24470;DHT22;12635;50.852;5.676;2023-08-17T02:54:11;18.20;99.90
24470;DHT22;12635;50.852;5.676;2023-08-17T02:56:38;18.10;99.90
24470;DHT22;12635;50.852;5.676;2023-08-17T02:59:05;18.10;99.90
24470;DHT22;12635;50.852;5.676;2023-08-17T03:01:33;18.00;99.90
24470;DHT22;12635;50.852;5.676;2023-08-17T03:04:00;18.00;99.90
24470;DHT22;12635;50.852;5.676;2023-08-17T03:06:28;17.90;99.90
24470;DHT22;12635;50.852;5.676;2023-08-17T03:08:55;17.90;99.90
24470;DHT22;12635;50.852;5.676;2023-08-17T03:11:22;17.90;99.90
24470;DHT22;12635;50.852;5.676;2023-08-17T03:13:49;17.80;99.90
24470;DHT22;12635;50.852;5.676;2023-08-17T03:16:15;17.70;99.90
24470;DHT22;12635;50.852;5.676;2023-08-17T03:18:42;17.60;99.90
24470;DHT22;12635;50.852;5.676;2023-08-17T03:21:09;17.60;99.90
24470;DHT22;12635;50.852;5.676;2023-08-17T03:23:37;17.60;99.90
24470;DHT22;12635;50.852;5.676;2023-08-17T03:26:04;17.50;99.90
24470;DHT22;12635;50.852;5.676;2023-08-17T03:28:31;17.50;99.90
24470;DHT22;12635;50.852;5.676;2023-08-17T03:30:58;17.50;99.90
24470;DHT22;12635;50.852;5.676;2023-08-17T03:33:25;17.50;99.90
24470;DHT22;12635;50.852;5.676;2023-08-17T03:35:52;17.50;99.90
24470;DHT22;12635;50.852;5.676;2023-08-17T03:38:19;17.50;99.90
24470;DHT22;12635;50.852;5.676;2023-08-17T03:40:47;17.50;99.90
24470;DHT22;12635;50.852;5.676;2023-08-17T03:43:14;17.50;99.90
24470;DHT22;12635;50.852;5.676;2023-08-17T03:45:41;17.60;99.90
24470;DHT22;12635;50.852;5.676;2023-08-17T03:48:08;17.50;99.90
24470;DHT22;12635;50.852;5.676;2023-08-17T03:50:35;17.50;99.90
24470;DHT22;12635;50.852;5.676;2023-08-17T03:53:02;17.60;99.90
24470;DHT22;12635;50.852;5.676;2023-08-17T03:55:29;17.60;99.90
24470;DHT22;12635;50.852;5.676;2023-08-17T03:57:57;17.60;99.90
24470;DHT22;12635;50.852;5.676;2023-08-17T04:00:24;17.60;99.90
24470;DHT22;12635;50.852;5.676;2023-08-17T04:02:51;17.60;99.90
24470;DHT22;12635;50.852;5.676;2023-08-17T04:05:18;17.60;99.90
24470;DHT22;12635;50.852;5.676;2023-08-17T04:07:45;17.60;99.90
24470;DHT22;12635;50.852;5.676;2023-08-17T04:10:13;17.60;99.90
24470;DHT22;12635;50.852;5.676;2023-08-17T04:12:39;17.60;99.90
24470;DHT22;12635;50.852;5.676;2023-08-17T04:15:08;17.60;99.90
24470;DHT22;12635;50.852;5.676;2023-08-17T04:17:35;17.60;99.90
24470;DHT22;12635;50.852;5.676;2023-08-17T04:20:02;17.60;99.90
24470;DHT22;12635;50.852;5.676;2023-08-17T04:22:30;17.60;99.90
24470;DHT22;12635;50.852;5.676;2023-08-17T04:24:57;17.60;99.90
24470;DHT22;12635;50.852;5.676;2023-08-17T04:27:24;17.60;99.90
24470;DHT22;12635;50.852;5.676;2023-08-17T04:29:50;17.60;99.90
24470;DHT22;12635;50.852;5.676;2023-08-17T04:32:19;17.60;99.90
24470;DHT22;12635;50.852;5.676;2023-08-17T04:34:46;17.60;99.90
24470;DHT22;12635;50.852;5.676;2023-08-17T04:37:13;17.60;99.90
24470;DHT22;12635;50.852;5.676;2023-08-17T04:39:40;17.60;99.90
24470;DHT22;12635;50.852;5.676;2023-08-17T04:42:08;17.50;99.90
24470;DHT22;12635;50.852;5.676;2023-08-17T04:44:35;17.60;99.90
24470;DHT22;12635;50.852;5.676;2023-08-17T04:47:02;17.50;99.90
24470;DHT22;12635;50.852;5.676;2023-08-17T04:49:31;17.60;99.90
24470;DHT22;12635;50.852;5.676;2023-08-17T04:51:58;17.60;99.90
24470;DHT22;12635;50.852;5.676;2023-08-17T04:54:25;17.50;99.90
24470;DHT22;12635;50.852;5.676;2023-08-17T04:56:51;17.50;99.90
24470;DHT22;12635;50.852;5.676;2023-08-17T04:59:18;17.50;99.90
24470;DHT22;12635;50.852;5.676;2023-08-17T05:01:45;17.50;99.90
24470;DHT22;12635;50.852;5.676;2023-08-17T05:04:12;17.50;99.90
24470;DHT22;12635;50.852;5.676;2023-08-17T05:06:40;17.50;99.90
24470;DHT22;12635;50.852;5.676;2023-08-17T05:09:08;17.60;99.90
24470;DHT22;12635;50.852;5.676;2023-08-17T05:11:35;17.50;99.90
24470;DHT22;12635;50.852;5.676;2023-08-17T05:14:02;17.60;99.90
24470;DHT22;12635;50.852;5.676;2023-08-17T05:16:29;17.50;99.90
24470;DHT22;12635;50.852;5.676;2023-08-17T05:18:56;17.50;99.90
24470;DHT22;12635;50.852;5.676;2023-08-17T05:21:24;17.50;99.90
24470;DHT22;12635;50.852;5.676;2023-08-17T05:23:53;17.40;99.90
24470;DHT22;12635;50.852;5.676;2023-08-17T05:26:20;17.40;99.90
24470;DHT22;12635;50.852;5.676;2023-08-17T05:28:46;17.40;99.90
24470;DHT22;12635;50.852;5.676;2023-08-17T05:31:13;17.40;99.90
24470;DHT22;12635;50.852;5.676;2023-08-17T05:33:40;17.40;99.90
24470;DHT22;12635;50.852;5.676;2023-08-17T05:36:07;17.40;99.90
24470;DHT22;12635;50.852;5.676;2023-08-17T05:38:34;17.40;99.90
24470;DHT22;12635;50.852;5.676;2023-08-17T05:41:03;17.40;99.90
24470;DHT22;12635;50.852;5.676;2023-08-17T05:43:29;17.40;99.90
24470;DHT22;12635;50.852;5.676;2023-08-17T05:45:56;17.40;99.90
24470;DHT22;12635;50.852;5.676;2023-08-17T05:48:23;17.40;99.90
24470;DHT22;12635;50.852;5.676;2023-08-17T05:50:50;17.50;99.90
24470;DHT22;12635;50.852;5.676;2023-08-17T05:53:17;17.50;99.90
24470;DHT22;12635;50.852;5.676;2023-08-17T05:55:44;17.50;99.90
24470;DHT22;12635;50.852;5.676;2023-08-17T05:58:12;17.50;99.90
24470;DHT22;12635;50.852;5.676;2023-08-17T06:00:39;17.50;99.90
24470;DHT22;12635;50.852;5.676;2023-08-17T06:03:06;17.40;99.90
24470;DHT22;12635;50.852;5.676;2023-08-17T06:05:34;17.50;99.90
24470;DHT22;12635;50.852;5.676;2023-08-17T06:08:01;17.50;99.90
24470;DHT22;12635;50.852;5.676;2023-08-17T06:10:28;17.60;99.90
24470;DHT22;12635;50.852;5.676;2023-08-17T06:12:56;17.60;99.90
24470;DHT22;12635;50.852;5.676;2023-08-17T06:15:24;17.70;99.90
24470;DHT22;12635;50.852;5.676;2023-08-17T06:17:51;17.60;99.90
24470;DHT22;12635;50.852;5.676;2023-08-17T06:20:18;17.60;99.90
24470;DHT22;12635;50.852;5.676;2023-08-17T06:22:46;17.50;99.90
24470;DHT22;12635;50.852;5.676;2023-08-17T06:25:13;17.50;99.90
24470;DHT22;12635;50.852;5.676;2023-08-17T06:27:41;17.50;99.90
24470;DHT22;12635;50.852;5.676;2023-08-17T06:30:08;17.50;99.90
24470;DHT22;12635;50.852;5.676;2023-08-17T06:32:37;17.60;99.90
24470;DHT22;12635;50.852;5.676;2023-08-17T06:35:04;17.70;99.90
24470;DHT22;12635;50.852;5.676;2023-08-17T06:37:31;17.70;99.90
24470;DHT22;12635;50.852;5.676;2023-08-17T06:39:58;17.70;99.90
24470;DHT22;12635;50.852;5.676;2023-08-17T06:42:25;17.70;99.90
24470;DHT22;12635;50.852;5.676;2023-08-17T06:44:52;17.80;99.90
24470;DHT22;12635;50.852;5.676;2023-08-17T06:47:19;17.70;99.90
24470;DHT22;12635;50.852;5.676;2023-08-17T06:49:47;17.70;99.90
24470;DHT22;12635;50.852;5.676;2023-08-17T06:52:14;17.70;99.90
24470;DHT22;12635;50.852;5.676;2023-08-17T06:54:41;17.80;99.90
24470;DHT22;12635;50.852;5.676;2023-08-17T06:57:08;17.90;99.90
24470;DHT22;12635;50.852;5.676;2023-08-17T06:59:35;18.10;99.90
24470;DHT22;12635;50.852;5.676;2023-08-17T07:02:02;18.20;99.90
24470;DHT22;12635;50.852;5.676;2023-08-17T07:04:29;18.40;99.90
24470;DHT22;12635;50.852;5.676;2023-08-17T07:06:57;18.20;99.90
24470;DHT22;12635;50.852;5.676;2023-08-17T07:09:25;18.30;99.90
24470;DHT22;12635;50.852;5.676;2023-08-17T07:11:53;18.30;99.90
24470;DHT22;12635;50.852;5.676;2023-08-17T07:14:20;18.50;99.90
24470;DHT22;12635;50.852;5.676;2023-08-17T07:16:47;18.70;99.90
24470;DHT22;12635;50.852;5.676;2023-08-17T07:19:14;18.70;99.90
24470;DHT22;12635;50.852;5.676;2023-08-17T07:21:40;18.70;99.90
24470;DHT22;12635;50.852;5.676;2023-08-17T07:24:13;18.50;99.90
24470;DHT22;12635;50.852;5.676;2023-08-17T07:26:40;18.60;99.90
24470;DHT22;12635;50.852;5.676;2023-08-17T07:29:07;18.70;99.90
24470;DHT22;12635;50.852;5.676;2023-08-17T07:31:34;18.80;99.90
24470;DHT22;12635;50.852;5.676;2023-08-17T07:34:03;18.80;99.90
24470;DHT22;12635;50.852;5.676;2023-08-17T07:36:30;18.90;99.90
24470;DHT22;12635;50.852;5.676;2023-08-17T07:38:57;18.80;99.90
24470;DHT22;12635;50.852;5.676;2023-08-17T07:41:25;18.70;99.90
24470;DHT22;12635;50.852;5.676;2023-08-17T07:43:52;18.80;99.90
24470;DHT22;12635;50.852;5.676;2023-08-17T07:46:19;18.70;99.90
24470;DHT22;12635;50.852;5.676;2023-08-17T07:48:46;18.70;99.90
24470;DHT22;12635;50.852;5.676;2023-08-17T07:51:13;18.90;99.90
24470;DHT22;12635;50.852;5.676;2023-08-17T07:53:40;19.10;99.90
24470;DHT22;12635;50.852;5.676;2023-08-17T07:56:07;19.10;99.90
24470;DHT22;12635;50.852;5.676;2023-08-17T07:58:35;19.40;99.90
24470;DHT22;12635;50.852;5.676;2023-08-17T08:01:02;19.30;99.90
24470;DHT22;12635;50.852;5.676;2023-08-17T08:03:29;19.70;99.90
24470;DHT22;12635;50.852;5.676;2023-08-17T08:05:56;19.90;99.90
24470;DHT22;12635;50.852;5.676;2023-08-17T08:08:23;19.80;99.90
24470;DHT22;12635;50.852;5.676;2023-08-17T08:10:52;19.70;99.90
24470;DHT22;12635;50.852;5.676;2023-08-17T08:13:19;19.70;99.90
24470;DHT22;12635;50.852;5.676;2023-08-17T08:15:47;19.70;99.90
24470;DHT22;12635;50.852;5.676;2023-08-17T08:18:14;19.90;99.90
24470;DHT22;12635;50.852;5.676;2023-08-17T08:20:41;20.00;99.90
24470;DHT22;12635;50.852;5.676;2023-08-17T08:23:08;19.60;99.90
24470;DHT22;12635;50.852;5.676;2023-08-17T08:25:35;19.20;99.90
24470;DHT22;12635;50.852;5.676;2023-08-17T08:28:02;18.80;99.90
24470;DHT22;12635;50.852;5.676;2023-08-17T08:30:29;18.80;99.90
24470;DHT22;12635;50.852;5.676;2023-08-17T08:32:57;19.10;99.90
24470;DHT22;12635;50.852;5.676;2023-08-17T08:35:25;19.50;99.90
24470;DHT22;12635;50.852;5.676;2023-08-17T08:37:52;19.70;99.90
24470;DHT22;12635;50.852;5.676;2023-08-17T08:40:21;19.90;99.90
24470;DHT22;12635;50.852;5.676;2023-08-17T08:42:53;19.60;99.90
24470;DHT22;12635;50.852;5.676;2023-08-17T08:45:20;18.90;99.90
24470;DHT22;12635;50.852;5.676;2023-08-17T08:47:48;18.80;99.90
24470;DHT22;12635;50.852;5.676;2023-08-17T08:50:18;18.90;99.90
24470;DHT22;12635;50.852;5.676;2023-08-17T08:52:52;19.30;99.90
24470;DHT22;12635;50.852;5.676;2023-08-17T08:55:21;19.30;99.90
24470;DHT22;12635;50.852;5.676;2023-08-17T08:57:49;19.60;99.90
24470;DHT22;12635;50.852;5.676;2023-08-17T09:00:16;19.40;99.90
24470;DHT22;12635;50.852;5.676;2023-08-17T09:02:43;19.40;99.90
24470;DHT22;12635;50.852;5.676;2023-08-17T09:05:10;19.10;99.90
24470;DHT22;12635;50.852;5.676;2023-08-17T09:07:39;19.30;99.90
24470;DHT22;12635;50.852;5.676;2023-08-17T09:10:06;19.70;99.90
24470;DHT22;12635;50.852;5.676;2023-08-17T09:12:33;19.90;99.90
24470;DHT22;12635;50.852;5.676;2023-08-17T09:15:00;20.00;99.90
24470;DHT22;12635;50.852;5.676;2023-08-17T09:17:27;20.30;99.90
24470;DHT22;12635;50.852;5.676;2023-08-17T09:19:54;19.70;99.90
24470;DHT22;12635;50.852;5.676;2023-08-17T09:22:24;19.40;99.90
24470;DHT22;12635;50.852;5.676;2023-08-17T09:24:53;19.00;99.90
24470;DHT22;12635;50.852;5.676;2023-08-17T09:27:20;18.80;99.90
24470;DHT22;12635;50.852;5.676;2023-08-17T09:29:47;18.60;99.90
24470;DHT22;12635;50.852;5.676;2023-08-17T09:32:14;18.60;99.90
24470;DHT22;12635;50.852;5.676;2023-08-17T09:34:41;18.70;99.90
24470;DHT22;12635;50.852;5.676;2023-08-17T09:37:08;18.80;99.90
24470;DHT22;12635;50.852;5.676;2023-08-17T09:39:35;19.10;99.90
24470;DHT22;12635;50.852;5.676;2023-08-17T09:42:03;19.40;99.90
24470;DHT22;12635;50.852;5.676;2023-08-17T09:44:33;20.10;99.90
24470;DHT22;12635;50.852;5.676;2023-08-17T09:47:00;20.30;99.90
24470;DHT22;12635;50.852;5.676;2023-08-17T09:49:30;19.80;99.90
24470;DHT22;12635;50.852;5.676;2023-08-17T09:51:57;19.60;99.90
24470;DHT22;12635;50.852;5.676;2023-08-17T09:54:25;20.10;99.90
24470;DHT22;12635;50.852;5.676;2023-08-17T09:56:52;20.20;99.90
24470;DHT22;12635;50.852;5.676;2023-08-17T09:59:21;19.80;99.90
24470;DHT22;12635;50.852;5.676;2023-08-17T10:01:49;19.70;99.90
24470;DHT22;12635;50.852;5.676;2023-08-17T10:04:19;20.60;99.90
24470;DHT22;12635;50.852;5.676;2023-08-17T10:06:47;21.40;99.90
24470;DHT22;12635;50.852;5.676;2023-08-17T10:09:14;21.50;99.90
24470;DHT22;12635;50.852;5.676;2023-08-17T10:11:43;21.20;99.90
24470;DHT22;12635;50.852;5.676;2023-08-17T10:14:13;21.40;99.90
24470;DHT22;12635;50.852;5.676;2023-08-17T10:16:44;21.30;99.90
24470;DHT22;12635;50.852;5.676;2023-08-17T10:19:13;21.20;99.90
24470;DHT22;12635;50.852;5.676;2023-08-17T10:21:46;21.30;99.90
24470;DHT22;12635;50.852;5.676;2023-08-17T10:24:15;21.50;99.90
24470;DHT22;12635;50.852;5.676;2023-08-17T10:26:42;21.90;99.90
24470;DHT22;12635;50.852;5.676;2023-08-17T10:29:09;21.90;99.90
24470;DHT22;12635;50.852;5.676;2023-08-17T10:31:37;22.20;99.90
24470;DHT22;12635;50.852;5.676;2023-08-17T10:34:06;22.00;99.90
24470;DHT22;12635;50.852;5.676;2023-08-17T10:36:33;22.50;99.90
24470;DHT22;12635;50.852;5.676;2023-08-17T10:39:20;22.50;99.90
24470;DHT22;12635;50.852;5.676;2023-08-17T10:41:47;22.70;99.90
24470;DHT22;12635;50.852;5.676;2023-08-17T10:44:14;21.50;99.90
24470;DHT22;12635;50.852;5.676;2023-08-17T10:46:41;20.90;99.90
24470;DHT22;12635;50.852;5.676;2023-08-17T10:49:25;21.40;99.90
24470;DHT22;12635;50.852;5.676;2023-08-17T10:52:04;20.90;99.90
24470;DHT22;12635;50.852;5.676;2023-08-17T10:54:37;20.50;99.90
24470;DHT22;12635;50.852;5.676;2023-08-17T11:00:04;20.70;99.90
24470;DHT22;12635;50.852;5.676;2023-08-17T11:02:33;20.40;99.90
24470;DHT22;12635;50.852;5.676;2023-08-17T11:05:02;20.70;99.90
24470;DHT22;12635;50.852;5.676;2023-08-17T11:07:38;20.90;99.90
24470;DHT22;12635;50.852;5.676;2023-08-17T11:10:10;21.70;99.90
24470;DHT22;12635;50.852;5.676;2023-08-17T11:12:37;21.80;99.90
24470;DHT22;12635;50.852;5.676;2023-08-17T11:15:04;21.20;99.90
24470;DHT22;12635;50.852;5.676;2023-08-17T11:17:31;20.50;99.90
24470;DHT22;12635;50.852;5.676;2023-08-17T11:19:58;20.20;99.90
24470;DHT22;12635;50.852;5.676;2023-08-17T11:22:26;20.30;99.90
24470;DHT22;12635;50.852;5.676;2023-08-17T11:24:53;20.20;99.90
24470;DHT22;12635;50.852;5.676;2023-08-17T11:27:20;20.00;99.90
24470;DHT22;12635;50.852;5.676;2023-08-17T11:29:47;20.30;99.90
24470;DHT22;12635;50.852;5.676;2023-08-17T11:32:15;20.80;99.90
24470;DHT22;12635;50.852;5.676;2023-08-17T11:34:42;20.80;99.90
24470;DHT22;12635;50.852;5.676;2023-08-17T11:37:11;21.10;99.90
24470;DHT22;12635;50.852;5.676;2023-08-17T11:39:39;21.50;99.90
24470;DHT22;12635;50.852;5.676;2023-08-17T11:42:06;21.30;99.90
24470;DHT22;12635;50.852;5.676;2023-08-17T11:44:33;21.30;99.90
24470;DHT22;12635;50.852;5.676;2023-08-17T11:47:00;21.80;99.90
24470;DHT22;12635;50.852;5.676;2023-08-17T11:49:27;21.90;99.90
24470;DHT22;12635;50.852;5.676;2023-08-17T11:51:56;22.00;99.90
24470;DHT22;12635;50.852;5.676;2023-08-17T11:54:23;22.30;99.90
24470;DHT22;12635;50.852;5.676;2023-08-17T11:56:52;21.90;99.90
24470;DHT22;12635;50.852;5.676;2023-08-17T11:59:19;21.10;99.90
24470;DHT22;12635;50.852;5.676;2023-08-17T12:01:46;21.10;99.90
24470;DHT22;12635;50.852;5.676;2023-08-17T12:04:15;21.50;99.90
24470;DHT22;12635;50.852;5.676;2023-08-17T12:06:43;21.50;99.90
24470;DHT22;12635;50.852;5.676;2023-08-17T12:09:10;21.30;99.90
24470;DHT22;12635;50.852;5.676;2023-08-17T12:11:39;21.20;99.90
24470;DHT22;12635;50.852;5.676;2023-08-17T12:14:11;21.20;99.90
24470;DHT22;12635;50.852;5.676;2023-08-17T12:16:45;21.20;99.90
24470;DHT22;12635;50.852;5.676;2023-08-17T12:19:11;21.40;99.90
24470;DHT22;12635;50.852;5.676;2023-08-17T12:21:40;21.10;99.90
24470;DHT22;12635;50.852;5.676;2023-08-17T12:24:08;21.00;99.90
24470;DHT22;12635;50.852;5.676;2023-08-17T12:26:35;21.30;99.90
24470;DHT22;12635;50.852;5.676;2023-08-17T12:29:04;22.20;99.90
24470;DHT22;12635;50.852;5.676;2023-08-17T12:31:33;22.90;99.90
24470;DHT22;12635;50.852;5.676;2023-08-17T12:34:00;23.30;99.90
24470;DHT22;12635;50.852;5.676;2023-08-17T12:36:28;22.30;99.90
24470;DHT22;12635;50.852;5.676;2023-08-17T12:38:55;21.40;99.90
24470;DHT22;12635;50.852;5.676;2023-08-17T12:41:22;21.30;99.90
24470;DHT22;12635;50.852;5.676;2023-08-17T12:43:49;22.10;99.90
24470;DHT22;12635;50.852;5.676;2023-08-17T12:46:19;23.20;99.90
24470;DHT22;12635;50.852;5.676;2023-08-17T12:48:47;24.10;99.90
24470;DHT22;12635;50.852;5.676;2023-08-17T12:51:14;24.20;99.90
24470;DHT22;12635;50.852;5.676;2023-08-17T12:53:41;22.90;99.90
24470;DHT22;12635;50.852;5.676;2023-08-17T12:56:08;22.40;99.90
24470;DHT22;12635;50.852;5.676;2023-08-17T12:58:35;21.60;99.90
24470;DHT22;12635;50.852;5.676;2023-08-17T13:01:02;21.20;99.90
24470;DHT22;12635;50.852;5.676;2023-08-17T13:03:29;21.90;99.90
24470;DHT22;12635;50.852;5.676;2023-08-17T13:05:57;22.20;99.90
24470;DHT22;12635;50.852;5.676;2023-08-17T13:08:24;22.10;99.90
24470;DHT22;12635;50.852;5.676;2023-08-17T13:10:51;21.40;99.90
24470;DHT22;12635;50.852;5.676;2023-08-17T13:13:18;21.20;99.90
24470;DHT22;12635;50.852;5.676;2023-08-17T13:15:45;21.30;99.90
24470;DHT22;12635;50.852;5.676;2023-08-17T13:18:12;21.50;99.90
24470;DHT22;12635;50.852;5.676;2023-08-17T13:20:38;21.70;99.90
24470;DHT22;12635;50.852;5.676;2023-08-17T13:23:07;21.90;99.90
24470;DHT22;12635;50.852;5.676;2023-08-17T13:25:34;21.10;99.90
24470;DHT22;12635;50.852;5.676;2023-08-17T13:28:01;21.30;99.90
24470;DHT22;12635;50.852;5.676;2023-08-17T13:30:28;21.40;99.90
24470;DHT22;12635;50.852;5.676;2023-08-17T13:32:55;21.20;99.90
24470;DHT22;12635;50.852;5.676;2023-08-17T13:35:22;20.80;99.90
24470;DHT22;12635;50.852;5.676;2023-08-17T13:37:51;20.40;99.90
24470;DHT22;12635;50.852;5.676;2023-08-17T13:40:19;20.30;99.90
24470;DHT22;12635;50.852;5.676;2023-08-17T13:42:46;20.60;99.90
24470;DHT22;12635;50.852;5.676;2023-08-17T13:45:13;20.90;99.90
24470;DHT22;12635;50.852;5.676;2023-08-17T13:47:40;21.40;99.90
24470;DHT22;12635;50.852;5.676;2023-08-17T13:50:07;21.40;99.90
24470;DHT22;12635;50.852;5.676;2023-08-17T13:52:34;21.90;99.90
24470;DHT22;12635;50.852;5.676;2023-08-17T13:55:01;21.90;99.90
24470;DHT22;12635;50.852;5.676;2023-08-17T13:57:30;21.30;99.90
24470;DHT22;12635;50.852;5.676;2023-08-17T13:59:57;21.10;99.90
24470;DHT22;12635;50.852;5.676;2023-08-17T14:02:23;20.90;99.90
24470;DHT22;12635;50.852;5.676;2023-08-17T14:04:50;21.20;99.90
24470;DHT22;12635;50.852;5.676;2023-08-17T14:07:17;21.50;99.90
24470;DHT22;12635;50.852;5.676;2023-08-17T14:09:44;21.90;99.90
24470;DHT22;12635;50.852;5.676;2023-08-17T14:12:11;22.00;99.90
24470;DHT22;12635;50.852;5.676;2023-08-17T14:14:39;22.00;99.90
24470;DHT22;12635;50.852;5.676;2023-08-17T14:17:06;21.70;99.90
24470;DHT22;12635;50.852;5.676;2023-08-17T14:19:33;21.80;99.90
24470;DHT22;12635;50.852;5.676;2023-08-17T14:22:00;22.30;99.90
24470;DHT22;12635;50.852;5.676;2023-08-17T14:24:27;22.70;99.90
24470;DHT22;12635;50.852;5.676;2023-08-17T14:26:54;22.80;99.90
24470;DHT22;12635;50.852;5.676;2023-08-17T14:29:22;23.40;99.90
24470;DHT22;12635;50.852;5.676;2023-08-17T14:31:50;24.30;99.90
24470;DHT22;12635;50.852;5.676;2023-08-17T14:34:17;25.30;99.90
24470;DHT22;12635;50.852;5.676;2023-08-17T14:36:44;26.00;99.90
24470;DHT22;12635;50.852;5.676;2023-08-17T14:39:12;26.20;99.90
24470;DHT22;12635;50.852;5.676;2023-08-17T14:41:39;26.50;99.90
24470;DHT22;12635;50.852;5.676;2023-08-17T14:44:05;26.30;99.90
24470;DHT22;12635;50.852;5.676;2023-08-17T14:46:32;24.30;99.90
24470;DHT22;12635;50.852;5.676;2023-08-17T14:49:01;23.90;99.90
24470;DHT22;12635;50.852;5.676;2023-08-17T14:51:28;23.00;99.90
24470;DHT22;12635;50.852;5.676;2023-08-17T14:53:55;22.40;99.90
24470;DHT22;12635;50.852;5.676;2023-08-17T14:56:22;22.80;99.90
24470;DHT22;12635;50.852;5.676;2023-08-17T14:58:49;23.00;99.90
24470;DHT22;12635;50.852;5.676;2023-08-17T15:01:16;23.40;99.90
24470;DHT22;12635;50.852;5.676;2023-08-17T15:03:43;22.10;99.90
24470;DHT22;12635;50.852;5.676;2023-08-17T15:06:11;22.80;99.90
24470;DHT22;12635;50.852;5.676;2023-08-17T15:08:38;22.20;99.90
24470;DHT22;12635;50.852;5.676;2023-08-17T15:11:05;21.80;99.90
24470;DHT22;12635;50.852;5.676;2023-08-17T15:13:32;22.50;99.90
24470;DHT22;12635;50.852;5.676;2023-08-17T15:15:58;23.30;99.90
24470;DHT22;12635;50.852;5.676;2023-08-17T15:18:25;22.80;99.90
24470;DHT22;12635;50.852;5.676;2023-08-17T15:20:52;21.80;99.90
24470;DHT22;12635;50.852;5.676;2023-08-17T15:23:20;21.90;99.90
24470;DHT22;12635;50.852;5.676;2023-08-17T15:25:47;21.70;99.90
24470;DHT22;12635;50.852;5.676;2023-08-17T15:28:14;21.40;99.90
24470;DHT22;12635;50.852;5.676;2023-08-17T15:30:41;21.50;99.90
24470;DHT22;12635;50.852;5.676;2023-08-17T15:33:08;21.30;99.90
24470;DHT22;12635;50.852;5.676;2023-08-17T15:35:34;21.10;99.90